Time;durP1;ratioP1;P1;durP2;ratioP2;P2;SDS_P1;SDS_P2;PMS_P1;PMS_P2;Temp;Humidity;BMP_temperature;BMP_pressure;BME280_temperature;BME280_humidity;BME280_pressure;Samples;Min_cycle;Max_cycle;Signal;HPM_P1;HPM_P2
2023/07/15 00:01:24;;;;;;;3.78;2.60;;;;;;;;;;4995988;28;20109;-84
2023/07/15 00:03:53;;;;;;;3.45;3.15;;;;;;;;;;4994865;28;20060;-84
2023/07/15 00:06:23;;;;;;;4.45;3.30;;;;;;;;;;4995395;28;20061;-85
2023/07/15 00:08:51;;;;;;;7.10;2.97;;;;;;;;;;4995954;28;20089;-85
2023/07/15 00:11:28;;;;;;;6.85;2.72;;;;;;;;;;4995971;28;20097;-85
2023/07/15 00:13:59;;;;;;;3.65;2.80;;;;;;;;;;4995862;28;20055;-85
2023/07/15 00:16:27;;;;;;;7.32;3.00;;;;;;;;;;4994822;28;20050;-85
2023/07/15 00:18:54;;;;;;;7.10;3.80;;;;;;;;;;4994739;28;20050;-85
2023/07/15 00:21:23;;;;;;;3.55;2.63;;;;;;;;;;4994617;28;20124;-85
2023/07/15 00:23:58;;;;;;;4.20;3.05;;;;;;;;;;4995085;28;20101;-85
2023/07/15 00:26:32;;;;;;;4.00;3.03;;;;;;;;;;4994508;28;20104;-85
2023/07/15 00:29:00;;;;;;;4.20;2.65;;;;;;;;;;4995458;28;20043;-85
2023/07/15 00:31:28;;;;;;;3.65;3.30;;;;;;;;;;4995550;28;20050;-84
2023/07/15 00:33:55;;;;;;;4.70;3.00;;;;;;;;;;4994657;28;20051;-85
2023/07/15 00:36:22;;;;;;;4.63;2.80;;;;;;;;;;4994530;28;20528;-85
2023/07/15 00:38:50;;;;;;;7.50;3.22;;;;;;;;;;4995372;28;20051;-85
2023/07/15 00:41:20;;;;;;;4.00;3.10;;;;;;;;;;4994169;28;20054;-85
2023/07/15 00:43:58;;;;;;;7.65;3.03;;;;;;;;;;4994007;28;20050;-84
2023/07/15 00:46:31;;;;;;;3.45;3.03;;;;;;;;;;4994180;28;20050;-85
2023/07/15 00:49:07;;;;;;;7.45;3.33;;;;;;;;;;4995223;28;20076;-85
2023/07/15 00:51:35;;;;;;;4.38;3.33;;;;;;;;;;4994003;28;20046;-85
2023/07/15 00:54:03;;;;;;;3.60;3.22;;;;;;;;;;4993721;28;20076;-85
2023/07/15 00:56:32;;;;;;;5.18;3.40;;;;;;;;;;4994947;28;20474;-85
2023/07/15 00:58:59;;;;;;;4.13;2.88;;;;;;;;;;4994010;28;20092;-85
2023/07/15 01:01:27;;;;;;;4.25;3.45;;;;;;;;;;4994949;28;20082;-85
2023/07/15 01:03:54;;;;;;;4.30;2.88;;;;;;;;;;4995277;28;20096;-85
2023/07/15 01:06:21;;;;;;;3.63;3.33;;;;;;;;;;4993596;28;20058;-85
2023/07/15 01:08:49;;;;;;;4.05;3.10;;;;;;;;;;4994347;28;20094;-85
2023/07/15 01:11:16;;;;;;;6.45;2.88;;;;;;;;;;4993590;28;20097;-85
2023/07/15 01:13:43;;;;;;;3.63;2.97;;;;;;;;;;4994917;28;20407;-85
2023/07/15 01:16:10;;;;;;;8.38;3.65;;;;;;;;;;4993879;28;20093;-85
2023/07/15 01:18:38;;;;;;;5.20;3.50;;;;;;;;;;4993206;28;20057;-85
2023/07/15 01:21:06;;;;;;;5.45;3.50;;;;;;;;;;4994347;28;20085;-85
2023/07/15 01:23:33;;;;;;;5.28;3.50;;;;;;;;;;4994435;28;20078;-85
2023/07/15 01:26:01;;;;;;;4.72;3.10;;;;;;;;;;4993413;28;20421;-85
2023/07/15 01:28:28;;;;;;;5.63;3.50;;;;;;;;;;4993202;28;20054;-85
2023/07/15 01:30:58;;;;;;;4.93;3.63;;;;;;;;;;4993317;28;20050;-85
2023/07/15 01:33:26;;;;;;;4.18;3.30;;;;;;;;;;4993200;28;20085;-85
2023/07/15 01:35:53;;;;;;;4.38;3.75;;;;;;;;;;4994235;28;20116;-84
2023/07/15 01:38:20;;;;;;;4.45;3.40;;;;;;;;;;4994264;28;20075;-85
2023/07/15 01:40:47;;;;;;;4.93;3.45;;;;;;;;;;4994366;28;20454;-85
2023/07/15 01:43:15;;;;;;;5.18;3.47;;;;;;;;;;4993151;28;20077;-85
2023/07/15 01:45:42;;;;;;;3.90;3.50;;;;;;;;;;4993907;28;20054;-85
2023/07/15 01:48:09;;;;;;;6.18;3.53;;;;;;;;;;4993769;28;20486;-85
2023/07/15 01:50:37;;;;;;;3.78;3.45;;;;;;;;;;4994273;28;20672;-85
2023/07/15 01:53:04;;;;;;;4.43;3.90;;;;;;;;;;4994204;28;20089;-85
2023/07/15 01:55:32;;;;;;;8.02;3.67;;;;;;;;;;4992725;28;20151;-85
2023/07/15 01:58:01;;;;;;;5.70;3.53;;;;;;;;;;4993308;28;20054;-85
2023/07/15 02:00:29;;;;;;;3.80;3.40;;;;;;;;;;4992684;28;20050;-85
2023/07/15 02:02:56;;;;;;;8.98;3.92;;;;;;;;;;4992376;28;20050;-85
2023/07/15 02:05:25;;;;;;;4.28;3.47;;;;;;;;;;4992477;28;20473;-85
2023/07/15 02:07:52;;;;;;;4.68;3.40;;;;;;;;;;4991628;28;20042;-85
2023/07/15 02:10:20;;;;;;;4.70;3.63;;;;;;;;;;4993478;28;20081;-85
2023/07/15 02:12:47;;;;;;;4.72;3.80;;;;;;;;;;4993719;28;20092;-86
2023/07/15 02:15:14;;;;;;;5.57;4.07;;;;;;;;;;4992021;28;20108;-85
2023/07/15 02:17:43;;;;;;;4.95;3.58;;;;;;;;;;4992417;28;20054;-85
2023/07/15 02:20:12;;;;;;;5.15;3.65;;;;;;;;;;4993573;28;20411;-85
2023/07/15 02:22:41;;;;;;;4.40;3.85;;;;;;;;;;4992207;28;20050;-85
2023/07/15 02:25:08;;;;;;;4.25;3.47;;;;;;;;;;4992321;28;20093;-85
2023/07/15 02:27:36;;;;;;;5.60;3.90;;;;;;;;;;4992115;28;20108;-85
2023/07/15 02:30:06;;;;;;;3.75;3.50;;;;;;;;;;4992261;28;20046;-85
2023/07/15 02:32:39;;;;;;;3.67;3.38;;;;;;;;;;4992275;28;20061;-85
2023/07/15 02:35:10;;;;;;;4.90;3.55;;;;;;;;;;4992324;28;20533;-85
2023/07/15 02:37:43;;;;;;;4.13;3.72;;;;;;;;;;4993514;28;20105;-85
2023/07/15 02:40:11;;;;;;;5.27;3.90;;;;;;;;;;4993221;28;20053;-85
2023/07/15 02:42:39;;;;;;;5.55;4.20;;;;;;;;;;4992066;28;20054;-85
2023/07/15 02:45:09;;;;;;;6.28;3.78;;;;;;;;;;4993149;28;20081;-85
2023/07/15 02:47:39;;;;;;;8.50;4.00;;;;;;;;;;4993049;28;20129;-85
2023/07/15 02:50:08;;;;;;;4.68;4.00;;;;;;;;;;4992172;28;20479;-85
2023/07/15 02:52:35;;;;;;;4.03;3.45;;;;;;;;;;4992093;28;20054;-85
2023/07/15 02:55:04;;;;;;;5.30;3.60;;;;;;;;;;4991997;28;20105;-85
2023/07/15 02:57:32;;;;;;;6.45;3.80;;;;;;;;;;4992936;28;20054;-85
2023/07/15 03:00:00;;;;;;;7.00;3.80;;;;;;;;;;4993056;28;20050;-85
2023/07/15 03:02:31;;;;;;;6.45;4.15;;;;;;;;;;4993119;28;20050;-85
2023/07/15 03:04:58;;;;;;;3.78;3.47;;;;;;;;;;4992181;28;20050;-85
2023/07/15 03:07:25;;;;;;;3.83;3.53;;;;;;;;;;4991615;28;20638;-85
2023/07/15 03:09:53;;;;;;;5.78;3.90;;;;;;;;;;4993948;28;20105;-85
2023/07/15 03:12:20;;;;;;;5.60;3.80;;;;;;;;;;4996781;28;20120;-85
2023/07/15 03:14:47;;;;;;;4.57;3.72;;;;;;;;;;4995767;28;20129;-85
2023/07/15 03:17:15;;;;;;;5.03;3.70;;;;;;;;;;4996539;28;20046;-85
2023/07/15 03:19:42;;;;;;;7.10;3.88;;;;;;;;;;4995606;28;20054;-85
2023/07/15 03:22:09;;;;;;;4.13;3.70;;;;;;;;;;4995363;28;20058;-85
2023/07/15 03:24:37;;;;;;;10.63;4.40;;;;;;;;;;4996680;28;20140;-85
2023/07/15 03:27:05;;;;;;;7.13;4.07;;;;;;;;;;4995545;28;20054;-85
2023/07/15 03:29:32;;;;;;;7.15;3.90;;;;;;;;;;4995447;28;20395;-85
2023/07/15 03:31:59;;;;;;;4.57;3.90;;;;;;;;;;4996507;28;20046;-85
2023/07/15 03:34:26;;;;;;;7.13;4.20;;;;;;;;;;4996459;28;20050;-84
2023/07/15 03:36:54;;;;;;;4.72;4.32;;;;;;;;;;4995040;28;20054;-85
2023/07/15 03:39:23;;;;;;;4.40;3.92;;;;;;;;;;4995335;28;20081;-85
2023/07/15 03:41:50;;;;;;;4.63;3.65;;;;;;;;;;4995267;28;20065;-85
2023/07/15 03:44:17;;;;;;;4.35;3.95;;;;;;;;;;4995203;28;20509;-85
2023/07/15 03:46:44;;;;;;;5.93;3.97;;;;;;;;;;4994920;28;20104;-85
2023/07/15 03:49:12;;;;;;;3.58;3.28;;;;;;;;;;4995112;28;20109;-85
2023/07/15 03:51:39;;;;;;;8.73;3.72;;;;;;;;;;4996056;28;20121;-85
2023/07/15 03:54:06;;;;;;;11.00;4.20;;;;;;;;;;4996117;28;20050;-85
2023/07/15 03:56:34;;;;;;;8.05;4.40;;;;;;;;;;4996145;28;20053;-85
2023/07/15 03:59:01;;;;;;;6.68;3.83;;;;;;;;;;4995807;28;20578;-85
2023/07/15 04:01:28;;;;;;;11.60;4.20;;;;;;;;;;4994592;28;20161;-85
2023/07/15 04:03:56;;;;;;;8.55;4.30;;;;;;;;;;4995798;28;20058;-85
2023/07/15 04:06:23;;;;;;;8.48;4.30;;;;;;;;;;4994862;28;20491;-85
2023/07/15 04:08:50;;;;;;;5.05;4.03;;;;;;;;;;4994481;28;20069;-85
2023/07/15 04:11:18;;;;;;;10.00;4.53;;;;;;;;;;4995596;28;20396;-85
2023/07/15 04:13:46;;;;;;;9.88;4.18;;;;;;;;;;4994689;28;20553;-85
2023/07/15 04:16:13;;;;;;;8.15;4.00;;;;;;;;;;4995469;28;20054;-85
2023/07/15 04:18:42;;;;;;;5.20;3.67;;;;;;;;;;4994422;28;20105;-85
2023/07/15 04:21:09;;;;;;;6.10;3.90;;;;;;;;;;4995111;28;20461;-85
2023/07/15 04:23:37;;;;;;;5.07;3.85;;;;;;;;;;4994262;28;20133;-85
2023/07/15 04:26:07;;;;;;;5.78;3.55;;;;;;;;;;4995629;28;20411;-85
2023/07/15 04:28:34;;;;;;;6.55;3.53;;;;;;;;;;4994086;28;20502;-85
2023/07/15 04:31:01;;;;;;;4.55;3.83;;;;;;;;;;4994024;28;20514;-85
2023/07/15 04:33:29;;;;;;;6.90;3.28;;;;;;;;;;4995279;28;20046;-85
2023/07/15 04:35:56;;;;;;;5.80;3.38;;;;;;;;;;4995353;28;20120;-85
2023/07/15 04:38:23;;;;;;;7.95;3.67;;;;;;;;;;4995116;28;20078;-84
2023/07/15 04:40:51;;;;;;;6.53;3.33;;;;;;;;;;4993720;28;20494;-85
2023/07/15 04:43:20;;;;;;;8.25;4.25;;;;;;;;;;4993828;28;20046;-85
2023/07/15 04:45:47;;;;;;;4.82;3.53;;;;;;;;;;4995228;28;20119;-84
2023/07/15 04:48:14;;;;;;;7.10;3.90;;;;;;;;;;4995072;28;20077;-85
2023/07/15 04:50:42;;;;;;;5.82;3.67;;;;;;;;;;4993795;28;20078;-85
2023/07/15 04:53:09;;;;;;;6.50;3.50;;;;;;;;;;4993742;28;20050;-84
2023/07/15 04:55:36;;;;;;;9.82;4.15;;;;;;;;;;4993538;28;20457;-85
2023/07/15 04:58:06;;;;;;;13.15;4.10;;;;;;;;;;4994888;28;20054;-85
2023/07/15 05:00:33;;;;;;;15.15;4.15;;;;;;;;;;4993557;28;20081;-85
2023/07/15 05:03:01;;;;;;;17.20;4.07;;;;;;;;;;4993578;28;20490;-85
2023/07/15 05:05:28;;;;;;;12.68;4.20;;;;;;;;;;4993585;28;20479;-85
2023/07/15 05:08:00;;;;;;;11.63;4.43;;;;;;;;;;4994213;28;20050;-85
2023/07/15 05:10:27;;;;;;;10.50;3.65;;;;;;;;;;4994679;28;20096;-84
2023/07/15 05:12:55;;;;;;;6.93;3.42;;;;;;;;;;4993596;28;20046;-83
2023/07/15 05:15:22;;;;;;;5.63;3.47;;;;;;;;;;4974480;28;20050;-85
2023/07/15 05:17:49;;;;;;;3.72;3.42;;;;;;;;;;4973863;28;20158;-84
2023/07/15 05:20:18;;;;;;;6.68;3.30;;;;;;;;;;4974914;28;20050;-82
2023/07/15 05:22:45;;;;;;;12.00;3.70;;;;;;;;;;4973751;28;20061;-85
2023/07/15 05:25:15;;;;;;;9.35;4.03;;;;;;;;;;4973833;28;20126;-85
2023/07/15 05:27:42;;;;;;;7.85;3.97;;;;;;;;;;4974984;28;20053;-84
2023/07/15 05:30:10;;;;;;;7.72;3.90;;;;;;;;;;4974542;28;20079;-84
2023/07/15 05:32:38;;;;;;;7.25;3.83;;;;;;;;;;4973188;28;20055;-85
2023/07/15 05:35:05;;;;;;;13.75;3.60;;;;;;;;;;4974605;28;20137;-85
2023/07/15 05:37:33;;;;;;;7.78;3.40;;;;;;;;;;4973125;28;20055;-85
2023/07/15 05:40:00;;;;;;;17.38;3.67;;;;;;;;;;4973485;28;20486;-83
2023/07/15 05:42:27;;;;;;;16.60;3.75;;;;;;;;;;4974573;28;20093;-84
2023/07/15 05:44:55;;;;;;;14.02;3.38;;;;;;;;;;4973515;28;20459;-83
2023/07/15 05:47:22;;;;;;;29.00;4.68;;;;;;;;;;4973267;28;20047;-84
2023/07/15 05:49:49;;;;;;;24.30;4.25;;;;;;;;;;4973548;28;20137;-84
2023/07/15 05:52:17;;;;;;;20.40;4.38;;;;;;;;;;4973412;28;20058;-83
2023/07/15 05:54:44;;;;;;;16.20;3.78;;;;;;;;;;4973567;28;20066;-83
2023/07/15 05:57:11;;;;;;;25.42;3.83;;;;;;;;;;4973288;28;20073;-84
2023/07/15 05:59:39;;;;;;;18.63;4.05;;;;;;;;;;4974445;28;20047;-84
2023/07/15 06:02:06;;;;;;;23.25;3.80;;;;;;;;;;4973114;28;20062;-83
2023/07/15 06:04:33;;;;;;;13.93;3.15;;;;;;;;;;4973083;28;20495;-83
2023/07/15 06:07:00;;;;;;;25.23;4.32;;;;;;;;;;4973419;28;20074;-84
2023/07/15 06:09:27;;;;;;;22.27;3.97;;;;;;;;;;4973010;28;20089;-83
2023/07/15 06:11:55;;;;;;;18.33;3.92;;;;;;;;;;4974299;28;20055;-84
2023/07/15 06:14:22;;;;;;;22.45;4.55;;;;;;;;;;4973087;28;20379;-84
2023/07/15 06:16:49;;;;;;;25.75;4.38;;;;;;;;;;4974162;28;20101;-83
2023/07/15 06:19:17;;;;;;;25.95;4.07;;;;;;;;;;4973226;28;20065;-84
2023/07/15 06:21:44;;;;;;;25.98;4.13;;;;;;;;;;4974218;28;20043;-85
2023/07/15 06:24:13;;;;;;;22.42;4.28;;;;;;;;;;4974349;28;20109;-85
2023/07/15 06:26:40;;;;;;;24.92;4.78;;;;;;;;;;4974237;28;20051;-84
2023/07/15 06:29:07;;;;;;;19.52;3.83;;;;;;;;;;4974321;28;20078;-85
2023/07/15 06:31:34;;;;;;;22.02;3.60;;;;;;;;;;4974073;28;20474;-84
2023/07/15 06:34:02;;;;;;;24.55;4.63;;;;;;;;;;4973127;28;20050;-85
2023/07/15 06:36:29;;;;;;;16.70;3.15;;;;;;;;;;4974363;28;20105;-85
2023/07/15 06:38:56;;;;;;;16.00;2.80;;;;;;;;;;4973088;28;20047;-85
2023/07/15 06:41:24;;;;;;;10.15;2.85;;;;;;;;;;4973053;28;20101;-85
2023/07/15 06:43:58;;;;;;;35.00;4.80;;;;;;;;;;4976530;28;20066;-85
2023/07/15 07:27:16;;;;;;;9.25;1.98;;;;;;;;;;5132835;27;20370;-81
2023/07/15 07:29:44;;;;;;;10.25;2.00;;;;;;;;;;5131667;27;20043;-80
2023/07/15 07:32:11;;;;;;;2.00;1.27;;;;;;;;;;5131240;27;20096;-82
2023/07/15 07:34:38;;;;;;;9.23;2.00;;;;;;;;;;5129676;27;20092;-81
2023/07/15 07:37:06;;;;;;;6.68;1.33;;;;;;;;;;5129109;27;20043;-82
2023/07/15 07:39:33;;;;;;;2.60;1.70;;;;;;;;;;5130006;27;20490;-80
2023/07/15 07:42:01;;;;;;;9.18;1.75;;;;;;;;;;5129703;27;20456;-81
2023/07/15 07:44:28;;;;;;;10.00;2.15;;;;;;;;;;5129646;27;20039;-81
2023/07/15 07:46:56;;;;;;;1.73;1.20;;;;;;;;;;5129310;27;20502;-81
2023/07/15 07:49:23;;;;;;;3.70;1.67;;;;;;;;;;5131695;27;20109;-80
2023/07/15 07:51:50;;;;;;;9.50;2.08;;;;;;;;;;5129608;27;20055;-82
2023/07/15 07:54:17;;;;;;;1.67;1.15;;;;;;;;;;5129222;28;20528;-82
2023/07/15 07:56:45;;;;;;;2.88;1.08;;;;;;;;;;5130356;27;20073;-81
2023/07/15 07:59:12;;;;;;;3.95;1.30;;;;;;;;;;5133246;27;20043;-83
2023/07/15 08:01:39;;;;;;;1.83;1.10;;;;;;;;;;5131578;27;20055;-83
2023/07/15 08:04:07;;;;;;;1.15;1.10;;;;;;;;;;5131600;27;20418;-82
2023/07/15 08:06:34;;;;;;;5.05;1.15;;;;;;;;;;5131050;28;20051;-81
2023/07/15 08:09:01;;;;;;;4.72;1.50;;;;;;;;;;5131287;27;20047;-82
2023/07/15 08:11:28;;;;;;;4.05;2.85;;;;;;;;;;5130124;27;20054;-82
2023/07/15 08:13:55;;;;;;;1.20;1.10;;;;;;;;;;5133399;27;20067;-81
2023/07/15 08:16:36;;;;;;;3.00;1.70;;;;;;;;;;5130462;27;20096;-82
2023/07/15 08:19:04;;;;;;;3.67;3.47;;;;;;;;;;5137654;27;20051;-83
2023/07/15 08:21:31;;;;;;;7.53;6.80;;;;;;;;;;5135927;27;20043;-81
2023/07/15 08:23:59;;;;;;;3.95;3.65;;;;;;;;;;5134563;27;20047;-82
2023/07/15 08:26:26;;;;;;;10.77;9.68;;;;;;;;;;5132733;27;20571;-82
2023/07/15 08:28:55;;;;;;;6.43;5.20;;;;;;;;;;5120818;28;20055;-82
2023/07/15 08:31:22;;;;;;;1.45;1.30;;;;;;;;;;5120051;28;20054;-82
2023/07/15 08:33:50;;;;;;;1.13;0.95;;;;;;;;;;5119617;28;20051;-82
2023/07/15 08:36:17;;;;;;;7.15;5.30;;;;;;;;;;5120262;28;20043;-81
2023/07/15 08:38:44;;;;;;;9.85;6.97;;;;;;;;;;5119929;28;20051;-81
2023/07/15 08:41:13;;;;;;;6.10;5.65;;;;;;;;;;5118489;28;20556;-82
2023/07/15 08:43:43;;;;;;;4.93;4.57;;;;;;;;;;5118679;28;20052;-80
2023/07/15 08:46:18;;;;;;;1.40;1.30;;;;;;;;;;5117600;28;20075;-81
2023/07/15 08:48:46;;;;;;;0.90;0.90;;;;;;;;;;5117944;28;20514;-80
2023/07/15 08:51:13;;;;;;;0.93;0.90;;;;;;;;;;5116301;28;20438;-80
2023/07/15 08:53:41;;;;;;;2.17;1.80;;;;;;;;;;5115952;28;20067;-82
2023/07/15 08:56:09;;;;;;;1.80;1.70;;;;;;;;;;5116923;28;20044;-80
2023/07/15 08:58:36;;;;;;;3.35;1.40;;;;;;;;;;5116653;28;20563;-82
2023/07/15 09:01:04;;;;;;;2.35;0.98;;;;;;;;;;5115768;28;20059;-81
2023/07/15 09:03:31;;;;;;;3.22;1.10;;;;;;;;;;5116307;28;20426;-81
2023/07/15 09:06:01;;;;;;;6.22;1.20;;;;;;;;;;5116180;28;20047;-83
2023/07/15 09:08:28;;;;;;;3.88;0.90;;;;;;;;;;5116929;28;20148;-81
2023/07/15 09:10:57;;;;;;;1.05;1.00;;;;;;;;;;5115245;28;20051;-81
2023/07/15 09:13:24;;;;;;;3.72;0.90;;;;;;;;;;5116465;28;20075;-82
2023/07/15 09:15:52;;;;;;;1.52;1.00;;;;;;;;;;5116167;28;20051;-80
2023/07/15 09:18:19;;;;;;;1.25;0.93;;;;;;;;;;5115934;28;20533;-81
2023/07/15 09:20:47;;;;;;;2.10;0.80;;;;;;;;;;5115760;28;20464;-82
2023/07/15 09:23:15;;;;;;;2.10;1.00;;;;;;;;;;5115066;28;20047;-80
2023/07/15 09:25:51;;;;;;;3.03;0.80;;;;;;;;;;5114574;28;20055;-82
2023/07/15 09:28:19;;;;;;;12.20;1.98;;;;;;;;;;5114313;28;20494;-83
2023/07/15 09:30:46;;;;;;;2.88;1.80;;;;;;;;;;5114586;28;20096;-80
2023/07/15 09:33:32;;;;;;;2.70;1.20;;;;;;;;;;5114626;28;20047;-82
2023/07/15 09:36:03;;;;;;;1.35;1.00;;;;;;;;;;5114708;28;20127;-80
2023/07/15 09:38:31;;;;;;;2.28;1.00;;;;;;;;;;5115433;28;20086;-80
2023/07/15 09:40:59;;;;;;;2.85;1.00;;;;;;;;;;5114494;28;20052;-81
2023/07/15 09:43:44;;;;;;;1.17;1.00;;;;;;;;;;5114424;28;20073;-81
2023/07/15 09:46:13;;;;;;;1.13;1.02;;;;;;;;;;5114536;28;20056;-80
2023/07/15 09:48:41;;;;;;;6.35;2.00;;;;;;;;;;5115736;28;20048;-80
2023/07/15 09:51:12;;;;;;;2.40;0.82;;;;;;;;;;5115465;28;20051;-82
2023/07/15 09:53:43;;;;;;;1.17;0.80;;;;;;;;;;5113979;28;20048;-82
2023/07/15 09:56:11;;;;;;;2.80;1.25;;;;;;;;;;5113880;28;20101;-83
2023/07/15 09:58:40;;;;;;;2.72;1.00;;;;;;;;;;5114948;27;20043;-82
2023/07/15 10:01:11;;;;;;;1.85;0.80;;;;;;;;;;5121847;28;20040;-81
2023/07/15 10:03:43;;;;;;;1.58;0.80;;;;;;;;;;5124344;28;20040;-82
2023/07/15 10:06:11;;;;;;;3.28;1.20;;;;;;;;;;5119967;28;20055;-82
2023/07/15 10:08:39;;;;;;;3.35;1.00;;;;;;;;;;5121504;28;20100;-83
2023/07/15 10:11:07;;;;;;;4.68;1.23;;;;;;;;;;5120059;28;20097;-81
2023/07/15 10:13:35;;;;;;;2.00;0.90;;;;;;;;;;5119329;28;20051;-83
2023/07/15 10:16:02;;;;;;;3.42;0.93;;;;;;;;;;5119965;28;20540;-80
2023/07/15 10:18:33;;;;;;;2.55;1.10;;;;;;;;;;5120142;28;20048;-81
2023/07/15 10:21:04;;;;;;;2.25;0.80;;;;;;;;;;5119957;27;20113;-79
2023/07/15 10:23:32;;;;;;;2.53;0.85;;;;;;;;;;5118957;28;20040;-80
2023/07/15 10:26:02;;;;;;;1.52;0.90;;;;;;;;;;5117684;28;20063;-80
2023/07/15 10:28:39;;;;;;;3.03;0.90;;;;;;;;;;5116018;28;20051;-80
2023/07/15 10:31:11;;;;;;;1.27;0.80;;;;;;;;;;5117255;28;20043;-83
2023/07/15 10:33:58;;;;;;;0.90;0.90;;;;;;;;;;5116279;28;20105;-79
2023/07/15 10:36:35;;;;;;;1.58;0.88;;;;;;;;;;5117923;28;20043;-80
2023/07/15 10:39:16;;;;;;;2.90;0.88;;;;;;;;;;5115853;28;20051;-81
2023/07/15 10:41:46;;;;;;;2.03;1.00;;;;;;;;;;5115431;28;20403;-80
2023/07/15 10:44:16;;;;;;;1.20;0.75;;;;;;;;;;5115028;28;20395;-80
2023/07/15 10:46:47;;;;;;;2.60;1.20;;;;;;;;;;5114537;28;20165;-81
2023/07/15 10:49:15;;;;;;;1.13;0.70;;;;;;;;;;5115303;28;20126;-80
2023/07/15 10:51:42;;;;;;;5.10;1.00;;;;;;;;;;5114697;28;20093;-79
2023/07/15 10:54:09;;;;;;;1.67;1.10;;;;;;;;;;5114023;28;20051;-80
2023/07/15 10:56:37;;;;;;;0.98;0.90;;;;;;;;;;5113470;28;20446;-79
2023/07/15 10:59:04;;;;;;;1.13;0.65;;;;;;;;;;5113807;28;20051;-78
2023/07/15 11:01:31;;;;;;;1.63;1.00;;;;;;;;;;5113254;28;20054;-79
2023/07/15 11:04:03;;;;;;;2.38;0.77;;;;;;;;;;5116870;28;20065;-80
2023/07/15 11:06:30;;;;;;;0.80;0.80;;;;;;;;;;5117445;28;20076;-79
2023/07/15 11:08:58;;;;;;;1.08;0.90;;;;;;;;;;5117816;28;20127;-79
2023/07/15 11:11:25;;;;;;;1.67;0.80;;;;;;;;;;5114382;28;20464;-80
2023/07/15 11:13:52;;;;;;;1.40;0.80;;;;;;;;;;5116103;28;20047;-78
2023/07/15 11:16:20;;;;;;;2.75;0.88;;;;;;;;;;5114409;28;20043;-80
2023/07/15 11:18:47;;;;;;;0.90;0.90;;;;;;;;;;5113515;28;20048;-81
2023/07/15 11:21:14;;;;;;;1.17;1.08;;;;;;;;;;5113299;28;20141;-80
2023/07/15 11:23:44;;;;;;;3.40;1.17;;;;;;;;;;5112947;28;20048;-80
2023/07/15 11:26:12;;;;;;;1.20;1.10;;;;;;;;;;5114021;28;20052;-81
2023/07/15 11:28:50;;;;;;;1.27;0.85;;;;;;;;;;5112510;28;20059;-81
2023/07/15 11:31:25;;;;;;;1.25;1.10;;;;;;;;;;5112483;28;20056;-80
2023/07/15 11:33:54;;;;;;;0.90;0.90;;;;;;;;;;5113283;28;20466;-78
2023/07/15 11:36:21;;;;;;;4.32;0.90;;;;;;;;;;5113287;28;20101;-77
2023/07/15 11:38:48;;;;;;;1.00;0.90;;;;;;;;;;5113958;28;20419;-80
2023/07/15 11:41:16;;;;;;;1.75;1.20;;;;;;;;;;5115861;28;20040;-81
2023/07/15 11:43:43;;;;;;;2.17;0.90;;;;;;;;;;5120968;28;20043;-81
2023/07/15 11:46:10;;;;;;;1.02;0.93;;;;;;;;;;5121689;28;20052;-81
2023/07/15 11:48:37;;;;;;;1.98;0.82;;;;;;;;;;5119319;28;20054;-81
2023/07/15 11:51:07;;;;;;;1.20;1.10;;;;;;;;;;5118588;28;20096;-81
2023/07/15 11:53:36;;;;;;;0.88;0.85;;;;;;;;;;5117614;28;20440;-80
2023/07/15 11:56:05;;;;;;;2.35;1.17;;;;;;;;;;5118684;28;20039;-80
2023/07/15 11:58:39;;;;;;;1.77;0.90;;;;;;;;;;5118186;28;20113;-81
2023/07/15 12:01:07;;;;;;;1.00;0.90;;;;;;;;;;5117596;28;20048;-81
2023/07/15 12:03:35;;;;;;;1.00;0.90;;;;;;;;;;5118716;28;20044;-81
2023/07/15 12:06:02;;;;;;;4.22;1.13;;;;;;;;;;5121566;28;20430;-78
2023/07/15 12:08:29;;;;;;;1.10;1.00;;;;;;;;;;5119789;28;20122;-81
2023/07/15 12:10:58;;;;;;;1.58;0.90;;;;;;;;;;5122274;28;20077;-81
2023/07/15 12:13:27;;;;;;;1.58;0.88;;;;;;;;;;5120641;28;20109;-82
2023/07/15 12:15:55;;;;;;;1.30;0.73;;;;;;;;;;5118563;28;20521;-82
2023/07/15 12:18:22;;;;;;;2.10;0.90;;;;;;;;;;5120102;28;20047;-80
2023/07/15 12:20:49;;;;;;;0.82;0.82;;;;;;;;;;5121449;28;20058;-80
2023/07/15 12:23:16;;;;;;;1.60;0.70;;;;;;;;;;5125118;27;20048;-80
2023/07/15 12:25:43;;;;;;;1.33;0.80;;;;;;;;;;5126771;28;20052;-81
2023/07/15 12:28:11;;;;;;;0.80;0.80;;;;;;;;;;5124306;28;20080;-80
2023/07/15 12:30:38;;;;;;;4.88;0.70;;;;;;;;;;5125897;28;20044;-80
2023/07/15 12:33:05;;;;;;;0.63;0.63;;;;;;;;;;5125443;28;20474;-81
2023/07/15 12:35:32;;;;;;;1.13;0.60;;;;;;;;;;5121258;28;20047;-79
2023/07/15 12:37:59;;;;;;;0.55;0.55;;;;;;;;;;5124392;28;20116;-82
2023/07/15 12:40:27;;;;;;;0.73;0.73;;;;;;;;;;5124996;28;20065;-79
2023/07/15 12:42:55;;;;;;;3.83;0.90;;;;;;;;;;5122883;28;20067;-79
2023/07/15 12:45:22;;;;;;;1.08;0.70;;;;;;;;;;5121838;28;20073;-81
2023/07/15 12:47:49;;;;;;;2.75;1.40;;;;;;;;;;5125251;27;20048;-80
2023/07/15 12:50:17;;;;;;;6.13;1.50;;;;;;;;;;5122073;28;20051;-80
2023/07/15 12:52:44;;;;;;;4.15;0.60;;;;;;;;;;5123496;28;20094;-80
2023/07/15 12:55:11;;;;;;;3.22;0.60;;;;;;;;;;5121103;28;20077;-80
2023/07/15 12:57:39;;;;;;;4.38;0.70;;;;;;;;;;5122825;28;20431;-80
2023/07/15 13:00:06;;;;;;;0.80;0.60;;;;;;;;;;5121889;27;20048;-80
2023/07/15 13:02:33;;;;;;;2.38;0.80;;;;;;;;;;5122125;28;20461;-80
2023/07/15 13:05:01;;;;;;;2.92;0.80;;;;;;;;;;5119785;28;20126;-79
2023/07/15 13:07:28;;;;;;;1.00;0.55;;;;;;;;;;5119030;28;20096;-80
2023/07/15 13:09:55;;;;;;;1.80;0.70;;;;;;;;;;5119641;28;20528;-80
2023/07/15 13:12:22;;;;;;;1.15;0.55;;;;;;;;;;5120441;28;20051;-81
2023/07/15 13:14:49;;;;;;;1.85;0.70;;;;;;;;;;5119008;28;20064;-80
2023/07/15 13:17:17;;;;;;;2.55;0.88;;;;;;;;;;5119769;28;20043;-83
2023/07/15 13:19:44;;;;;;;7.00;0.95;;;;;;;;;;5117750;28;20490;-82
2023/07/15 13:22:11;;;;;;;1.00;0.57;;;;;;;;;;5123098;28;20074;-81
2023/07/15 13:24:38;;;;;;;3.17;0.60;;;;;;;;;;5122349;28;20044;-81
2023/07/15 13:27:06;;;;;;;0.70;0.70;;;;;;;;;;5122301;28;20063;-79
2023/07/15 13:29:33;;;;;;;2.20;0.63;;;;;;;;;;5123057;28;20051;-80
2023/07/15 13:32:00;;;;;;;1.02;0.80;;;;;;;;;;5124009;28;20055;-79
2023/07/15 13:34:28;;;;;;;0.60;0.60;;;;;;;;;;5121650;28;20047;-79
2023/07/15 13:36:55;;;;;;;0.90;0.88;;;;;;;;;;5120619;28;20043;-80
2023/07/15 13:39:52;;;;;;;0.80;0.80;;;;;;;;;;5120785;28;20391;-80
2023/07/15 13:42:21;;;;;;;0.70;0.70;;;;;;;;;;5112819;28;20043;-79
2023/07/15 13:44:49;;;;;;;2.05;0.73;;;;;;;;;;5119506;28;20043;-80
2023/07/15 13:47:17;;;;;;;0.82;0.70;;;;;;;;;;5118292;28;20392;-79
2023/07/15 13:49:44;;;;;;;1.35;1.25;;;;;;;;;;5117850;28;20056;-81
2023/07/15 13:52:12;;;;;;;0.70;0.70;;;;;;;;;;5119118;28;20063;-80
2023/07/15 13:54:39;;;;;;;4.03;0.82;;;;;;;;;;5120290;28;20051;-80
2023/07/15 13:57:06;;;;;;;2.55;0.68;;;;;;;;;;5116675;28;20491;-81
2023/07/15 13:59:33;;;;;;;1.75;0.70;;;;;;;;;;5118743;28;20085;-79
2023/07/15 14:02:01;;;;;;;0.70;0.70;;;;;;;;;;5121320;28;20048;-79
2023/07/15 14:04:28;;;;;;;1.60;0.90;;;;;;;;;;5119750;28;20047;-80
2023/07/15 14:06:55;;;;;;;11.13;2.10;;;;;;;;;;5116747;27;20047;-80
2023/07/15 14:09:22;;;;;;;0.80;0.80;;;;;;;;;;5118329;28;20506;-77
2023/07/15 14:11:50;;;;;;;1.58;0.95;;;;;;;;;;5119473;28;20043;-78
2023/07/15 14:14:17;;;;;;;5.28;1.67;;;;;;;;;;5117367;28;20077;-79
2023/07/15 14:16:44;;;;;;;3.08;1.20;;;;;;;;;;5115660;28;20054;-79
2023/07/15 14:19:12;;;;;;;1.10;1.00;;;;;;;;;;5114098;28;20050;-80
2023/07/15 14:21:39;;;;;;;1.60;0.90;;;;;;;;;;5114998;28;20066;-78
2023/07/15 14:24:07;;;;;;;4.45;1.20;;;;;;;;;;5114894;28;20044;-79
2023/07/15 14:26:34;;;;;;;0.60;0.60;;;;;;;;;;5114974;28;20423;-80
2023/07/15 14:29:01;;;;;;;1.35;1.00;;;;;;;;;;5115449;28;20058;-82
2023/07/15 14:31:29;;;;;;;1.10;1.10;;;;;;;;;;5113380;28;20043;-79
2023/07/15 14:33:57;;;;;;;0.77;0.77;;;;;;;;;;5114082;28;20055;-79
2023/07/15 14:36:27;;;;;;;2.13;0.88;;;;;;;;;;5115036;28;20093;-80
2023/07/15 14:38:55;;;;;;;0.98;0.98;;;;;;;;;;5113906;28;20483;-78
2023/07/15 14:41:22;;;;;;;0.82;0.82;;;;;;;;;;5114019;28;20044;-77
2023/07/15 14:43:49;;;;;;;2.22;0.95;;;;;;;;;;5115994;28;20141;-81
2023/07/15 14:46:17;;;;;;;3.03;1.20;;;;;;;;;;5115728;28;20047;-80
2023/07/15 14:48:44;;;;;;;0.88;0.88;;;;;;;;;;5116137;28;20090;-81
2023/07/15 14:51:11;;;;;;;3.13;0.93;;;;;;;;;;5115987;28;20108;-80
2023/07/15 14:53:38;;;;;;;1.52;1.10;;;;;;;;;;5116706;28;20095;-77
2023/07/15 14:56:06;;;;;;;0.95;0.90;;;;;;;;;;5113620;28;20047;-77
2023/07/15 14:58:33;;;;;;;1.85;0.98;;;;;;;;;;5115382;28;20051;-80
2023/07/15 15:01:00;;;;;;;2.08;0.80;;;;;;;;;;5118948;28;20437;-83
2023/07/15 15:03:28;;;;;;;2.75;1.02;;;;;;;;;;5121665;28;20127;-81
2023/07/15 15:05:55;;;;;;;4.25;1.30;;;;;;;;;;5119082;28;20051;-83
2023/07/15 15:08:22;;;;;;;1.33;1.23;;;;;;;;;;5117871;28;20395;-80
2023/07/15 15:10:49;;;;;;;1.67;1.17;;;;;;;;;;5116257;28;20048;-79
2023/07/15 15:13:17;;;;;;;3.35;1.20;;;;;;;;;;5118602;28;20146;-81
2023/07/15 15:15:44;;;;;;;2.55;1.05;;;;;;;;;;5118096;28;20051;-81
2023/07/15 15:18:11;;;;;;;1.10;1.00;;;;;;;;;;5116967;28;20567;-80
2023/07/15 15:20:38;;;;;;;1.20;0.95;;;;;;;;;;5115977;28;20043;-81
2023/07/15 15:23:05;;;;;;;6.53;3.67;;;;;;;;;;5116740;28;20055;-81
2023/07/15 15:25:33;;;;;;;4.47;4.10;;;;;;;;;;5115526;28;20059;-81
2023/07/15 15:28:01;;;;;;;1.30;1.20;;;;;;;;;;5116120;28;20097;-80